createdAt,value
2018-07-19T00:02:07.312Z,3.23
2018-07-19T00:04:35.303Z,2.83
2018-07-19T00:07:03.395Z,2.40
2018-07-19T00:09:31.404Z,2.63
2018-07-19T00:11:59.162Z,3.23
2018-07-19T00:14:27.186Z,2.67
2018-07-19T00:16:55.142Z,2.90
2018-07-19T00:19:23.162Z,2.70
2018-07-19T00:21:50.773Z,2.97
2018-07-19T00:24:18.894Z,3.10
2018-07-19T00:26:47.163Z,3.40
2018-07-19T00:29:15.240Z,2.73
2018-07-19T00:31:43.348Z,2.80
2018-07-19T00:34:11.751Z,2.80
2018-07-19T00:36:39.971Z,2.50
2018-07-19T00:39:08.753Z,2.73
2018-07-19T00:41:36.579Z,2.87
2018-07-19T00:44:11.275Z,2.80
2018-07-19T00:46:39.236Z,2.83
2018-07-19T00:49:07.174Z,3.00
2018-07-19T00:51:36.066Z,3.10
2018-07-19T00:54:04.299Z,2.60
2018-07-19T00:56:32.279Z,2.70
2018-07-19T00:59:00.490Z,3.20
2018-07-19T01:01:28.350Z,3.10
2018-07-19T01:03:56.352Z,3.00
2018-07-19T01:06:24.322Z,3.27
2018-07-19T01:08:52.196Z,3.37
2018-07-19T01:11:20.259Z,3.10
2018-07-19T01:13:48.756Z,3.20
2018-07-19T01:16:16.966Z,2.70
2018-07-19T01:18:44.951Z,2.93
2018-07-19T01:21:13.060Z,3.50
2018-07-19T01:23:41.054Z,2.97
2018-07-19T01:26:08.840Z,3.03
2018-07-19T01:28:37.123Z,2.73
2018-07-19T01:31:05.304Z,3.00
2018-07-19T01:33:33.365Z,2.63
2018-07-19T01:36:01.891Z,3.00
2018-07-19T01:38:29.927Z,3.20
2018-07-19T01:40:58.888Z,3.30
2018-07-19T01:43:27.104Z,3.10
2018-07-19T01:45:55.118Z,2.80
2018-07-19T01:48:23.225Z,2.60
2018-07-19T01:50:51.139Z,3.00
2018-07-19T01:53:19.055Z,3.17
2018-07-19T01:55:47.483Z,3.13
2018-07-19T01:58:15.225Z,2.80
2018-07-19T02:00:43.224Z,2.43
2018-07-19T02:03:11.328Z,2.80
2018-07-19T02:05:39.423Z,2.70
2018-07-19T02:08:08.112Z,2.83
2018-07-19T02:10:36.227Z,2.63
2018-07-19T02:13:04.240Z,3.10
2018-07-19T02:15:32.553Z,2.87
2018-07-19T02:18:00.644Z,3.40
2018-07-19T02:20:28.651Z,2.70
2018-07-19T02:22:56.908Z,3.13
2018-07-19T02:25:24.992Z,3.63
2018-07-19T02:27:53.366Z,3.10
2018-07-19T02:30:21.493Z,2.73
2018-07-19T02:32:49.941Z,2.57
2018-07-19T02:35:17.783Z,2.90
2018-07-19T02:37:45.718Z,3.40
2018-07-19T02:40:14.064Z,3.30
2018-07-19T02:42:41.940Z,2.90
2018-07-19T02:45:09.774Z,2.80
2018-07-19T02:47:37.689Z,2.73
2018-07-19T02:50:05.588Z,2.70
2018-07-19T02:52:33.485Z,3.17
2018-07-19T02:55:01.297Z,3.20
2018-07-19T02:57:29.499Z,2.70
2018-07-19T02:59:57.433Z,2.70
2018-07-19T03:02:25.612Z,3.00
2018-07-19T03:04:53.736Z,2.90
2018-07-19T03:07:21.609Z,2.77
2018-07-19T03:09:49.712Z,3.63
2018-07-19T03:12:17.985Z,3.00
2018-07-19T03:14:45.951Z,3.10
2018-07-19T03:17:14.203Z,3.00
2018-07-19T03:19:42.363Z,2.70
2018-07-19T03:22:10.643Z,3.07
2018-07-19T03:24:39.508Z,3.03
2018-07-19T03:27:07.239Z,3.60
2018-07-19T03:29:35.425Z,2.60
2018-07-19T03:32:03.515Z,2.73
2018-07-19T03:34:31.910Z,3.20
2018-07-19T03:36:59.939Z,3.23
2018-07-19T03:39:27.836Z,2.80
2018-07-19T03:41:55.994Z,3.30
2018-07-19T03:44:23.978Z,3.27
2018-07-19T03:46:51.859Z,3.50
2018-07-19T03:49:20.348Z,3.40
2018-07-19T03:51:48.205Z,3.17
2018-07-19T03:54:16.265Z,2.77
2018-07-19T03:56:44.333Z,3.03
2018-07-19T03:59:12.287Z,3.40
2018-07-19T04:01:40.618Z,3.00
2018-07-19T04:04:08.476Z,3.00
2018-07-19T04:06:36.497Z,3.30
2018-07-19T04:09:06.303Z,3.50
2018-07-19T04:11:34.924Z,3.10
2018-07-19T04:14:03.032Z,3.20
2018-07-19T04:16:31.552Z,3.30
2018-07-19T04:18:59.739Z,2.97
2018-07-19T04:21:27.589Z,3.10
2018-07-19T04:23:55.690Z,3.10
2018-07-19T04:26:24.143Z,2.87
2018-07-19T04:28:52.257Z,3.33
2018-07-19T04:31:21.085Z,2.73
2018-07-19T04:33:49.156Z,3.50
2018-07-19T04:36:16.996Z,3.93
2018-07-19T04:38:44.961Z,3.90
2018-07-19T04:41:13.083Z,3.63
2018-07-19T04:43:40.843Z,3.87
2018-07-19T04:46:08.999Z,3.77
2018-07-19T04:48:37.120Z,3.70
2018-07-19T04:51:05.156Z,3.80
2018-07-19T04:53:33.224Z,3.93
2018-07-19T04:56:01.079Z,3.90
2018-07-19T04:58:29.077Z,3.57
2018-07-19T05:00:57.537Z,3.50
2018-07-19T05:03:25.687Z,3.80
2018-07-19T05:05:53.571Z,3.07
2018-07-19T05:08:21.671Z,3.80
2018-07-19T05:10:49.999Z,3.37
2018-07-19T05:13:18.789Z,3.20
2018-07-19T05:15:47.589Z,3.50
2018-07-19T05:18:15.768Z,3.50
2018-07-19T05:20:44.258Z,3.37
2018-07-19T05:23:12.817Z,2.73
2018-07-19T05:25:40.945Z,3.27
2018-07-19T05:28:08.771Z,3.60
2018-07-19T05:30:36.941Z,3.17
2018-07-19T05:33:05.211Z,3.77
2018-07-19T05:35:33.144Z,3.33
2018-07-19T05:38:01.243Z,4.80
2018-07-19T05:40:29.262Z,3.10
2018-07-19T05:42:57.279Z,2.83
2018-07-19T05:45:25.472Z,3.83
2018-07-19T05:47:53.539Z,4.73
2018-07-19T05:50:21.625Z,7.07
2018-07-19T05:52:49.837Z,6.80
2018-07-19T05:55:17.885Z,2.63
2018-07-19T05:57:45.674Z,4.47
2018-07-19T06:00:14.528Z,4.17
2018-07-19T06:02:42.411Z,3.70
2018-07-19T06:05:10.793Z,3.30
2018-07-19T06:07:39.148Z,3.20
2018-07-19T06:10:07.464Z,3.67
2018-07-19T06:12:36.992Z,3.60
2018-07-19T06:15:05.841Z,3.43
2018-07-19T06:17:33.777Z,2.50
2018-07-19T06:20:02.127Z,2.73
2018-07-19T06:22:30.617Z,2.50
2018-07-19T06:24:58.596Z,2.10
2018-07-19T06:27:26.692Z,2.50
2018-07-19T06:29:54.771Z,2.27
2018-07-19T06:32:22.622Z,2.20
2018-07-19T06:34:51.216Z,2.00
2018-07-19T06:37:19.515Z,2.07
2018-07-19T06:39:47.740Z,2.07
2018-07-19T06:42:15.879Z,2.40
2018-07-19T06:44:44.228Z,2.30
2018-07-19T06:47:12.529Z,2.37
2018-07-19T06:49:40.889Z,2.10
2018-07-19T06:52:09.367Z,2.13
2018-07-19T06:54:37.287Z,2.37
2018-07-19T06:57:05.652Z,2.43
2018-07-19T06:59:33.711Z,2.23
2018-07-19T07:02:01.519Z,2.23
2018-07-19T07:04:29.667Z,2.30
2018-07-19T07:06:58.267Z,1.97
2018-07-19T07:09:26.516Z,1.73
2018-07-19T07:11:54.504Z,1.60
2018-07-19T07:14:22.844Z,2.00
2018-07-19T07:16:51.039Z,1.80
2018-07-19T07:19:19.053Z,1.83
2018-07-19T07:21:47.106Z,1.93
2018-07-19T07:24:15.285Z,1.53
2018-07-19T07:26:43.621Z,1.90
2018-07-19T07:29:11.991Z,2.10
2018-07-19T07:31:40.017Z,2.00
2018-07-19T07:34:08.496Z,1.97
2018-07-19T07:36:37.784Z,2.40
2018-07-19T07:39:08.112Z,1.87
2018-07-19T07:41:36.898Z,1.90
2018-07-19T07:44:05.310Z,2.13
2018-07-19T07:46:34.180Z,2.40
2018-07-19T07:49:02.598Z,2.10
2018-07-19T07:51:30.576Z,1.90
2018-07-19T07:53:58.741Z,2.07
2018-07-19T07:56:26.781Z,2.07
2018-07-19T07:58:55.217Z,1.90
2018-07-19T08:01:23.260Z,1.70
2018-07-19T08:03:51.934Z,1.90
2018-07-19T08:06:19.870Z,2.00
2018-07-19T08:08:48.528Z,2.23
2018-07-19T08:11:16.512Z,1.60
2018-07-19T08:13:44.955Z,1.90
2018-07-19T08:16:13.120Z,1.70
2018-07-19T08:18:41.018Z,2.10
2018-07-19T08:21:09.518Z,2.00
2018-07-19T08:23:38.028Z,1.90
2018-07-19T08:26:06.595Z,1.70
2018-07-19T08:28:34.471Z,1.77
2018-07-19T08:31:02.528Z,1.87
2018-07-19T08:33:31.096Z,1.90
2018-07-19T08:35:59.623Z,2.03
2018-07-19T08:38:27.931Z,2.40
2018-07-19T08:40:56.893Z,2.10
2018-07-19T08:43:24.967Z,2.00
2018-07-19T08:45:52.915Z,2.03
2018-07-19T08:48:21.305Z,2.00
2018-07-19T08:50:49.572Z,1.70
2018-07-19T08:53:17.825Z,1.90
2018-07-19T08:55:45.953Z,2.00
2018-07-19T08:58:14.042Z,2.07
2018-07-19T09:00:42.438Z,2.20
2018-07-19T09:03:10.378Z,2.17
2018-07-19T09:05:38.639Z,1.87
2018-07-19T09:08:06.358Z,2.03
2018-07-19T09:10:34.929Z,1.67
2018-07-19T09:13:02.942Z,1.90
2018-07-19T09:15:31.561Z,2.07
2018-07-19T09:17:59.490Z,1.87
2018-07-19T09:20:27.319Z,2.20
2018-07-19T09:22:55.432Z,1.90
2018-07-19T09:25:23.616Z,1.70
2018-07-19T09:27:51.880Z,2.20
2018-07-19T09:30:19.943Z,2.13
2018-07-19T09:32:48.092Z,2.80
2018-07-19T09:35:16.264Z,2.47
2018-07-19T09:37:44.307Z,1.80
2018-07-19T09:40:12.234Z,1.90
2018-07-19T09:42:40.485Z,1.77
2018-07-19T09:45:08.468Z,2.00
2018-07-19T09:47:37.054Z,1.70
2018-07-19T09:50:05.403Z,1.63
2018-07-19T09:52:33.759Z,1.97
2018-07-19T09:55:02.978Z,2.10
2018-07-19T09:57:31.665Z,1.73
2018-07-19T09:59:59.675Z,2.10
2018-07-19T10:02:27.937Z,1.63
2018-07-19T10:04:56.021Z,2.07
2018-07-19T10:07:24.432Z,1.70
2018-07-19T10:09:52.274Z,1.70
2018-07-19T10:12:20.293Z,1.80
2018-07-19T10:14:48.836Z,2.23
2018-07-19T10:17:17.497Z,2.30
2018-07-19T10:19:45.446Z,2.20
2018-07-19T10:22:13.744Z,1.97
2018-07-19T10:24:42.598Z,2.00
2018-07-19T10:27:10.597Z,2.20
2018-07-19T10:29:38.534Z,2.10
2018-07-19T10:32:07.625Z,2.33
2018-07-19T10:34:35.863Z,2.13
2018-07-19T10:37:03.638Z,2.50
2018-07-19T10:39:32.408Z,1.97
2018-07-19T10:42:00.427Z,1.90
2018-07-19T10:44:28.679Z,1.53
2018-07-19T10:46:56.552Z,2.50
2018-07-19T10:49:24.629Z,1.90
2018-07-19T10:51:52.884Z,1.67
2018-07-19T10:54:21.346Z,2.00
2018-07-19T10:56:49.444Z,2.60
2018-07-19T10:59:17.310Z,2.03
2018-07-19T11:01:45.140Z,2.20
2018-07-19T11:04:13.162Z,2.00
2018-07-19T11:06:41.609Z,1.83
2018-07-19T11:09:10.235Z,2.40
2018-07-19T11:11:38.677Z,2.40
2018-07-19T11:14:07.015Z,2.13
2018-07-19T11:16:36.572Z,2.20
2018-07-19T11:19:04.728Z,1.83
2018-07-19T11:21:32.873Z,1.80
2018-07-19T11:24:01.605Z,2.00
2018-07-19T11:26:29.651Z,2.07
2018-07-19T11:28:57.656Z,2.30
2018-07-19T11:31:25.706Z,2.47
2018-07-19T11:33:53.630Z,2.10
2018-07-19T11:36:21.863Z,2.10
2018-07-19T11:38:50.032Z,2.23
2018-07-19T11:41:18.647Z,1.80
2018-07-19T11:43:46.786Z,1.87
2018-07-19T11:46:14.764Z,2.80
2018-07-19T11:48:42.978Z,2.30
2018-07-19T11:51:11.108Z,2.37
2018-07-19T11:53:39.913Z,1.90
2018-07-19T11:56:07.919Z,1.93
2018-07-19T11:58:36.067Z,2.20
2018-07-19T12:01:04.247Z,2.50
2018-07-19T12:03:32.492Z,2.10
2018-07-19T12:06:00.962Z,2.00
2018-07-19T12:08:29.293Z,2.17
2018-07-19T12:10:57.630Z,2.33
2018-07-19T12:13:26.448Z,6.60
2018-07-19T12:15:55.815Z,3.20
2018-07-19T12:18:24.243Z,2.00
2018-07-19T12:20:52.641Z,2.57
2018-07-19T12:23:20.918Z,2.30
2018-07-19T12:25:49.016Z,1.87
2018-07-19T12:28:17.763Z,2.07
2018-07-19T12:30:45.852Z,2.70
2018-07-19T12:33:13.999Z,1.97
2018-07-19T12:35:42.420Z,2.03
2018-07-19T12:38:10.305Z,3.20
2018-07-19T12:40:38.644Z,2.43
2018-07-19T12:43:07.126Z,4.80
2018-07-19T12:45:35.707Z,6.10
2018-07-19T12:48:04.368Z,2.33
2018-07-19T12:50:32.606Z,2.30
2018-07-19T12:53:01.313Z,2.10
2018-07-19T12:55:29.751Z,1.90
2018-07-19T12:57:59.676Z,2.20
2018-07-19T13:00:28.584Z,2.10
2018-07-19T13:02:57.178Z,2.00
2018-07-19T13:05:29.017Z,2.30
2018-07-19T13:07:58.057Z,1.90
2018-07-19T13:10:26.150Z,2.10
2018-07-19T13:12:55.115Z,2.03
2018-07-19T13:15:24.332Z,2.10
2018-07-19T13:17:52.704Z,2.30
2018-07-19T13:20:21.058Z,2.00
2018-07-19T13:22:49.365Z,2.50
2018-07-19T13:25:17.271Z,1.87
2018-07-19T13:27:45.260Z,2.10
2018-07-19T13:30:14.118Z,2.10
2018-07-19T13:32:41.980Z,1.80
2018-07-19T13:35:09.951Z,2.20
2018-07-19T13:37:38.010Z,1.60
2018-07-19T13:40:06.236Z,2.20
2018-07-19T13:42:34.794Z,1.77
2018-07-19T13:45:03.076Z,2.00
2018-07-19T13:47:31.824Z,2.10
2018-07-19T13:49:59.868Z,1.93
2018-07-19T13:52:39.102Z,2.00
2018-07-19T13:55:08.299Z,2.40
2018-07-19T13:57:36.264Z,1.63
2018-07-19T14:00:05.155Z,2.03
2018-07-19T14:02:33.463Z,1.70
2018-07-19T14:05:01.749Z,2.30
2018-07-19T14:07:29.518Z,1.80
2018-07-19T14:09:58.045Z,2.00
2018-07-19T14:12:26.072Z,2.10
2018-07-19T14:14:53.914Z,2.17
2018-07-19T14:17:22.197Z,1.90
2018-07-19T14:19:51.996Z,1.90
2018-07-19T14:22:20.101Z,1.80
2018-07-19T14:24:48.252Z,2.10
2018-07-19T14:27:16.381Z,1.93
2018-07-19T14:29:44.628Z,2.10
2018-07-19T14:32:12.826Z,1.97
2018-07-19T14:34:41.288Z,1.93
2018-07-19T14:37:09.333Z,2.10
2018-07-19T14:39:37.677Z,2.00
2018-07-19T14:42:06.353Z,2.20
2018-07-19T14:44:34.874Z,2.00
2018-07-19T14:47:02.930Z,2.23
2018-07-19T14:49:30.982Z,2.37
2018-07-19T14:51:58.848Z,2.00
2018-07-19T14:54:26.734Z,2.17
2018-07-19T14:56:54.814Z,2.00
2018-07-19T14:59:22.681Z,2.00
2018-07-19T15:01:50.915Z,2.50
2018-07-19T15:04:19.365Z,2.10
2018-07-19T15:06:47.434Z,2.43
2018-07-19T15:09:15.530Z,1.97
2018-07-19T15:11:44.119Z,2.57
2018-07-19T15:14:12.046Z,2.10
2018-07-19T15:16:40.349Z,2.17
2018-07-19T15:19:08.371Z,2.13
2018-07-19T15:21:37.392Z,2.13
2018-07-19T15:24:05.894Z,2.40
2018-07-19T15:26:34.947Z,2.40
2018-07-19T15:29:02.966Z,2.67
2018-07-19T15:31:30.775Z,2.70
2018-07-19T15:33:58.867Z,2.40
2018-07-19T15:36:27.021Z,1.87
2018-07-19T15:38:55.906Z,2.50
2018-07-19T15:41:24.021Z,2.37
2018-07-19T15:43:52.040Z,2.27
2018-07-19T15:46:20.283Z,2.70
2018-07-19T15:48:48.402Z,2.13
2018-07-19T15:51:16.328Z,1.80
2018-07-19T15:53:44.263Z,2.17
2018-07-19T15:56:12.138Z,2.40
2018-07-19T15:58:43.023Z,2.27
2018-07-19T16:01:11.489Z,2.43
2018-07-19T16:03:39.552Z,2.60
2018-07-19T16:06:07.461Z,2.13
2018-07-19T16:08:35.589Z,2.80
2018-07-19T16:11:03.749Z,2.30
2018-07-19T16:13:31.907Z,2.30
2018-07-19T16:16:00.579Z,2.43
2018-07-19T16:18:28.799Z,2.60
2018-07-19T16:20:57.038Z,2.43
2018-07-19T16:23:25.116Z,2.63
2018-07-19T16:25:54.045Z,2.60
2018-07-19T16:28:22.304Z,2.97
2018-07-19T16:30:50.599Z,2.50
2018-07-19T16:33:19.052Z,2.60
2018-07-19T16:35:47.126Z,2.50
2018-07-19T16:38:15.184Z,2.90
2018-07-19T16:40:43.655Z,2.80
2018-07-19T16:43:11.649Z,2.67
2018-07-19T16:45:40.079Z,2.20
2018-07-19T16:48:08.315Z,2.30
2018-07-19T16:50:36.426Z,2.60
2018-07-19T16:53:04.115Z,2.50
2018-07-19T16:55:32.045Z,2.73
2018-07-19T16:57:59.789Z,2.23
2018-07-19T17:00:28.131Z,2.90
2018-07-19T17:02:55.931Z,2.40
2018-07-19T17:05:23.871Z,2.53
2018-07-19T17:07:51.959Z,2.50
2018-07-19T17:10:20.068Z,2.70
2018-07-19T17:12:48.287Z,2.37
2018-07-19T17:15:16.670Z,2.80
2018-07-19T17:17:44.644Z,2.17
2018-07-19T17:20:13.025Z,2.90
2018-07-19T17:22:40.977Z,2.87
2018-07-19T17:25:08.845Z,2.80
2018-07-19T17:27:38.073Z,2.33
2018-07-19T17:30:06.698Z,2.40
2018-07-19T17:32:35.099Z,2.40
2018-07-19T17:35:03.316Z,2.50
2018-07-19T17:37:32.160Z,2.30
2018-07-19T17:39:59.861Z,2.60
2018-07-19T17:42:27.870Z,2.50
2018-07-19T17:44:56.156Z,2.53
2018-07-19T17:47:24.800Z,2.80
2018-07-19T17:49:54.737Z,2.47
2018-07-19T17:52:23.110Z,3.10
2018-07-19T17:54:52.116Z,2.70
2018-07-19T17:57:20.176Z,2.47
2018-07-19T17:59:48.058Z,2.30
2018-07-19T18:02:15.973Z,2.63
2018-07-19T18:04:44.661Z,2.70
2018-07-19T18:07:13.133Z,2.17
2018-07-19T18:09:41.317Z,2.67
2018-07-19T18:12:09.494Z,2.30
2018-07-19T18:14:39.542Z,2.50
2018-07-19T18:17:08.089Z,2.10
2018-07-19T18:19:36.454Z,2.27
2018-07-19T18:22:04.574Z,2.37
2018-07-19T18:24:32.773Z,2.23
2018-07-19T18:27:00.929Z,2.30
2018-07-19T18:29:29.816Z,2.17
2018-07-19T18:31:57.954Z,2.47
2018-07-19T18:34:26.381Z,2.10
2018-07-19T18:36:54.528Z,2.43
2018-07-19T18:39:22.453Z,2.30
2018-07-19T18:41:50.659Z,2.07
2018-07-19T18:44:18.606Z,2.30
2018-07-19T18:46:46.565Z,2.27
2018-07-19T18:49:14.725Z,2.20
2018-07-19T18:51:43.217Z,2.50
2018-07-19T18:54:11.813Z,2.40
2018-07-19T18:56:39.866Z,2.50
2018-07-19T18:59:07.989Z,2.60
2018-07-19T19:01:36.329Z,2.33
2018-07-19T19:04:04.497Z,2.30
2018-07-19T19:06:32.901Z,2.37
2018-07-19T19:09:01.075Z,2.60
2018-07-19T19:11:29.158Z,2.70
2018-07-19T19:13:57.194Z,1.80
2018-07-19T19:16:25.915Z,2.57
2018-07-19T19:18:53.738Z,2.50
2018-07-19T19:21:22.566Z,2.23
2018-07-19T19:23:50.617Z,2.60
2018-07-19T19:26:18.604Z,2.43
2018-07-19T19:28:46.943Z,1.90
2018-07-19T19:31:15.590Z,2.30
2018-07-19T19:33:43.993Z,2.43
2018-07-19T19:36:12.088Z,2.40
2018-07-19T19:38:40.250Z,2.00
2018-07-19T19:41:09.239Z,2.47
2018-07-19T19:43:38.283Z,2.37
2018-07-19T19:46:06.788Z,2.20
2018-07-19T19:48:36.299Z,2.40
2018-07-19T19:51:05.856Z,2.20
2018-07-19T19:53:33.868Z,2.50
2018-07-19T19:56:01.976Z,2.50
2018-07-19T19:58:30.628Z,2.87
2018-07-19T20:00:59.242Z,2.30
2018-07-19T20:03:28.649Z,2.60
2018-07-19T20:05:56.880Z,2.70
2018-07-19T20:08:25.414Z,2.53
2018-07-19T20:10:53.847Z,2.10
2018-07-19T20:13:22.709Z,2.50
2018-07-19T20:15:51.919Z,2.43
2018-07-19T20:18:21.427Z,2.80
2018-07-19T20:20:49.855Z,2.80
2018-07-19T20:23:18.283Z,2.47
2018-07-19T20:25:46.405Z,2.37
2018-07-19T20:28:14.733Z,2.37
2018-07-19T20:30:43.133Z,2.37
2018-07-19T20:33:12.971Z,2.70
2018-07-19T20:35:41.043Z,2.37
2018-07-19T20:38:09.734Z,2.60
2018-07-19T20:40:40.484Z,3.20
2018-07-19T20:43:08.403Z,2.70
2018-07-19T20:45:36.767Z,2.30
2018-07-19T20:48:06.174Z,3.23
2018-07-19T20:50:35.308Z,3.03
2018-07-19T20:53:03.993Z,2.70
2018-07-19T20:55:32.732Z,2.97
2018-07-19T20:58:01.232Z,3.13
2018-07-19T21:00:29.646Z,3.00
2018-07-19T21:02:57.728Z,3.20
2018-07-19T21:05:26.073Z,3.30
2018-07-19T21:07:54.205Z,3.07
2018-07-19T21:10:23.563Z,2.60
2018-07-19T21:12:51.868Z,2.73
2018-07-19T21:15:20.560Z,2.67
2018-07-19T21:17:48.791Z,2.90
2018-07-19T21:20:16.831Z,2.50
2018-07-19T21:22:44.953Z,3.00
2018-07-19T21:25:14.498Z,2.90
2018-07-19T21:27:43.219Z,2.67
2018-07-19T21:30:11.577Z,2.90
2018-07-19T21:32:40.148Z,2.67
2018-07-19T21:35:09.269Z,2.60
2018-07-19T21:37:37.294Z,2.63
2018-07-19T21:40:05.920Z,2.67
2018-07-19T21:42:33.885Z,2.60
2018-07-19T21:45:02.086Z,2.47
2018-07-19T21:47:30.298Z,2.73
2018-07-19T21:49:58.404Z,2.90
2018-07-19T21:52:26.700Z,2.90
2018-07-19T21:54:55.693Z,2.80
2018-07-19T21:57:23.657Z,3.00
2018-07-19T21:59:52.241Z,2.60
2018-07-19T22:02:20.358Z,2.90
2018-07-19T22:04:48.498Z,2.60
2018-07-19T22:07:16.814Z,2.40
2018-07-19T22:09:45.067Z,2.67
2018-07-19T22:12:13.277Z,2.90
2018-07-19T22:14:41.184Z,2.90
2018-07-19T22:17:10.058Z,3.47
2018-07-19T22:19:37.925Z,2.63
2018-07-19T22:22:06.468Z,2.50
2018-07-19T22:24:35.617Z,2.83
2018-07-19T22:27:03.222Z,3.00
2018-07-19T22:29:31.334Z,3.03
2018-07-19T22:31:59.254Z,2.53
2018-07-19T22:34:27.365Z,3.27
2018-07-19T22:36:55.369Z,3.33
2018-07-19T22:39:23.281Z,2.53
2018-07-19T22:41:51.364Z,2.70
2018-07-19T22:44:19.449Z,2.57
2018-07-19T22:46:47.525Z,3.00
2018-07-19T22:49:15.711Z,3.17
2018-07-19T22:51:43.836Z,2.83
2018-07-19T22:54:12.012Z,3.00
2018-07-19T22:56:40.060Z,3.00
2018-07-19T22:59:08.065Z,2.50
2018-07-19T23:01:36.744Z,2.30
2018-07-19T23:04:04.650Z,3.30
2018-07-19T23:06:33.285Z,3.10
2018-07-19T23:09:01.288Z,2.90
2018-07-19T23:11:29.300Z,2.63
2018-07-19T23:13:57.337Z,3.07
2018-07-19T23:16:25.543Z,3.00
2018-07-19T23:18:53.303Z,2.63
2018-07-19T23:21:21.569Z,3.10
2018-07-19T23:23:49.396Z,3.33
2018-07-19T23:26:17.281Z,3.10
2018-07-19T23:28:45.483Z,3.50
2018-07-19T23:31:13.405Z,3.40
2018-07-19T23:33:41.438Z,2.97
2018-07-19T23:36:23.376Z,2.80
2018-07-19T23:38:57.681Z,2.77
2018-07-19T23:41:32.833Z,3.07
2018-07-19T23:44:05.230Z,3.27
2018-07-19T23:46:38.188Z,2.50
2018-07-19T23:49:07.307Z,2.60
2018-07-19T23:51:37.417Z,2.80
2018-07-19T23:54:05.923Z,3.00
2018-07-19T23:56:35.622Z,3.23
2018-07-19T23:59:03.825Z,3.43
